createdAt,value
2019-05-05T00:02:14.748Z,62.62
2019-05-05T00:04:48.089Z,62.60
2019-05-05T00:07:20.616Z,62.75
2019-05-05T00:09:51.493Z,62.75
2019-05-05T00:12:34.343Z,62.66
2019-05-05T00:15:08.616Z,62.80
2019-05-05T00:17:39.693Z,63.00
2019-05-05T00:20:10.592Z,62.84
2019-05-05T00:22:41.470Z,62.69
2019-05-05T00:25:14.321Z,62.54
2019-05-05T00:27:45.226Z,62.51
2019-05-05T00:30:16.046Z,62.78
2019-05-05T00:32:46.949Z,62.68
2019-05-05T00:35:17.829Z,62.84
2019-05-05T00:37:48.729Z,62.68
2019-05-05T00:40:19.622Z,62.69
2019-05-05T00:42:50.515Z,62.80
2019-05-05T00:45:21.415Z,62.59
2019-05-05T00:47:54.533Z,62.69
2019-05-05T00:50:25.430Z,62.83
2019-05-05T00:52:56.340Z,62.83
2019-05-05T00:55:27.234Z,62.45
2019-05-05T00:57:58.133Z,62.61
2019-05-05T01:00:30.693Z,62.55
2019-05-05T01:03:01.574Z,62.72
2019-05-05T01:05:50.284Z,62.83
2019-05-05T01:08:24.838Z,62.69
2019-05-05T01:10:55.399Z,62.34
2019-05-05T01:13:26.285Z,62.60
2019-05-05T01:15:57.193Z,62.46
2019-05-05T01:18:28.074Z,62.96
2019-05-05T01:20:58.952Z,62.83
2019-05-05T01:23:31.478Z,62.61
2019-05-05T01:26:02.388Z,62.43
2019-05-05T01:28:35.523Z,62.39
2019-05-05T01:31:07.882Z,62.83
2019-05-05T01:33:40.419Z,62.66
2019-05-05T01:36:11.329Z,62.60
2019-05-05T01:38:46.544Z,62.56
2019-05-05T01:41:21.787Z,62.50
2019-05-05T01:43:54.211Z,62.60
2019-05-05T01:46:25.097Z,62.66
2019-05-05T01:48:56.011Z,62.51
2019-05-05T01:51:26.891Z,62.60
2019-05-05T01:53:57.777Z,62.57
2019-05-05T01:56:28.687Z,62.84
2019-05-05T01:58:59.579Z,62.87
2019-05-05T02:01:30.454Z,62.63
2019-05-05T02:04:01.360Z,62.73
2019-05-05T02:06:32.268Z,62.90
2019-05-05T02:09:05.169Z,62.72
2019-05-05T02:11:35.917Z,62.70
2019-05-05T02:14:06.803Z,62.89
2019-05-05T02:16:37.708Z,62.87
2019-05-05T02:19:08.597Z,62.95
2019-05-05T02:21:39.490Z,62.71
2019-05-05T02:24:10.439Z,62.59
2019-05-05T02:26:41.345Z,63.07
2019-05-05T02:29:19.281Z,63.05
2019-05-05T02:32:07.916Z,63.01
2019-05-05T02:34:40.435Z,62.93
2019-05-05T02:37:11.349Z,62.95
2019-05-05T02:39:50.451Z,63.04
2019-05-05T02:42:15.071Z,63.03
2019-05-05T02:44:46.035Z,62.92
2019-05-05T02:47:34.839Z,63.11
2019-05-05T02:50:09.352Z,63.13
2019-05-05T02:52:40.264Z,62.81
2019-05-05T02:55:12.213Z,62.96
2019-05-05T02:57:43.911Z,63.03
2019-05-05T03:00:24.721Z,63.06
2019-05-05T03:02:57.127Z,62.92
2019-05-05T03:05:28.103Z,63.23
2019-05-05T03:07:59.757Z,62.98
2019-05-05T03:10:30.665Z,63.21
2019-05-05T03:13:01.549Z,63.43
2019-05-05T03:16:06.170Z,63.60
2019-05-05T03:18:37.035Z,64.02
2019-05-05T03:21:07.948Z,63.57
2019-05-05T03:23:39.070Z,63.56
2019-05-05T03:26:09.954Z,63.35
2019-05-05T03:28:48.534Z,63.34
2019-05-05T03:31:19.415Z,63.26
2019-05-05T03:33:50.331Z,63.67
2019-05-05T03:36:21.276Z,63.38
2019-05-05T03:38:53.910Z,63.16
2019-05-05T03:41:27.273Z,63.20
2019-05-05T03:44:04.556Z,63.27
2019-05-05T03:46:35.633Z,63.06
2019-05-05T03:49:06.517Z,62.95
2019-05-05T03:51:37.875Z,63.17
2019-05-05T03:54:08.762Z,63.28
2019-05-05T03:56:39.671Z,63.15
2019-05-05T03:59:10.551Z,63.14
2019-05-05T04:01:45.738Z,63.45
2019-05-05T04:04:30.270Z,63.32
2019-05-05T04:07:04.452Z,63.02
2019-05-05T04:09:34.758Z,63.51
2019-05-05T04:12:05.639Z,63.57
2019-05-05T04:14:37.109Z,63.17
2019-05-05T04:17:25.901Z,63.19
2019-05-05T04:20:14.746Z,63.57
2019-05-05T04:22:45.660Z,63.52
2019-05-05T04:25:16.561Z,63.42
2019-05-05T04:27:47.469Z,63.53
2019-05-05T04:30:19.048Z,63.60
2019-05-05T04:32:49.932Z,63.19
2019-05-05T04:35:21.270Z,63.09
2019-05-05T04:37:54.067Z,63.07
2019-05-05T04:40:24.783Z,62.95
2019-05-05T04:42:55.659Z,62.87
2019-05-05T04:45:26.566Z,63.17
2019-05-05T04:47:59.105Z,62.85
2019-05-05T04:50:37.597Z,63.15
2019-05-05T04:53:10.137Z,63.84
2019-05-05T04:55:41.028Z,63.45
2019-05-05T04:58:13.689Z,63.41
2019-05-05T05:00:44.780Z,63.34
2019-05-05T05:03:34.611Z,62.99
2019-05-05T05:06:14.665Z,63.06
2019-05-05T05:08:45.625Z,62.84
2019-05-05T05:11:16.507Z,62.71
2019-05-05T05:13:47.392Z,62.98
2019-05-05T05:16:18.280Z,62.92
2019-05-05T05:18:49.186Z,62.79
2019-05-05T05:21:20.062Z,62.66
2019-05-05T05:23:50.953Z,62.83
2019-05-05T05:26:21.879Z,62.92
2019-05-05T05:28:53.842Z,62.75
2019-05-05T05:31:24.811Z,62.16
2019-05-05T05:33:55.702Z,62.16
2019-05-05T05:36:26.589Z,62.11
2019-05-05T05:38:59.105Z,62.29
2019-05-05T05:41:46.362Z,61.67
2019-05-05T05:44:34.777Z,61.76
2019-05-05T05:47:14.094Z,62.06
2019-05-05T05:49:49.313Z,62.38
2019-05-05T05:52:20.206Z,62.52
2019-05-05T05:54:51.110Z,62.55
2019-05-05T05:57:24.022Z,63.80
2019-05-05T05:59:54.890Z,63.64
2019-05-05T06:02:25.844Z,63.11
2019-05-05T06:04:56.751Z,64.29
2019-05-05T06:07:27.649Z,64.88
2019-05-05T06:09:58.695Z,65.08
2019-05-05T06:12:29.436Z,64.14
2019-05-05T06:15:00.363Z,64.40
2019-05-05T06:17:31.255Z,64.07
2019-05-05T06:20:03.921Z,64.46
2019-05-05T06:22:34.997Z,64.02
2019-05-05T06:25:07.621Z,64.90
2019-05-05T06:27:38.978Z,64.65
2019-05-05T06:30:09.865Z,65.29
2019-05-05T06:32:43.133Z,65.59
2019-05-05T06:35:13.834Z,65.79
2019-05-05T06:37:54.752Z,65.38
2019-05-05T06:40:27.438Z,64.53
2019-05-05T06:43:05.903Z,63.78
2019-05-05T06:45:38.423Z,64.04
2019-05-05T06:48:09.344Z,64.48
2019-05-05T06:50:40.219Z,64.14
2019-05-05T06:53:11.107Z,64.23
2019-05-05T06:55:44.294Z,63.22
2019-05-05T06:58:14.568Z,62.82
2019-05-05T07:00:45.441Z,62.78
2019-05-05T07:03:16.344Z,63.45
2019-05-05T07:05:47.241Z,64.03
2019-05-05T07:08:18.123Z,65.14
2019-05-05T07:10:49.036Z,64.03
2019-05-05T07:13:19.920Z,64.41
2019-05-05T07:15:50.818Z,65.76
2019-05-05T07:18:21.696Z,64.74
2019-05-05T07:20:54.438Z,65.50
2019-05-05T07:23:25.553Z,63.77
2019-05-05T07:25:56.439Z,64.44
2019-05-05T07:28:27.324Z,63.35
2019-05-05T07:30:58.248Z,63.19
2019-05-05T07:33:29.096Z,63.74
2019-05-05T07:36:06.122Z,61.90
2019-05-05T07:38:37.234Z,63.19
2019-05-05T07:41:08.133Z,62.66
2019-05-05T07:43:39.020Z,63.18
2019-05-05T07:46:09.970Z,61.94
2019-05-05T07:48:40.877Z,62.16
2019-05-05T07:51:13.945Z,61.42
2019-05-05T07:53:44.515Z,62.78
2019-05-05T07:56:15.393Z,62.92
2019-05-05T07:58:46.296Z,62.48
2019-05-05T08:01:17.176Z,60.23
2019-05-05T08:03:48.057Z,59.45
2019-05-05T08:06:19.311Z,61.67
2019-05-05T08:08:50.051Z,61.25
2019-05-05T08:11:20.938Z,59.65
2019-05-05T08:13:51.817Z,59.63
2019-05-05T08:16:24.341Z,57.90
2019-05-05T08:18:55.020Z,59.34
2019-05-05T08:21:25.907Z,59.56
2019-05-05T08:23:56.544Z,58.48
2019-05-05T08:26:45.419Z,58.53
2019-05-05T08:29:23.808Z,55.82
2019-05-05T08:32:13.604Z,54.55
2019-05-05T08:34:57.383Z,55.86
2019-05-05T08:37:17.247Z,54.02
2019-05-05T08:39:48.520Z,54.54
2019-05-05T08:42:19.409Z,51.52
2019-05-05T08:44:50.303Z,54.46
2019-05-05T08:47:21.185Z,51.78
2019-05-05T08:49:53.756Z,53.20
2019-05-05T08:52:24.820Z,53.85
2019-05-05T08:54:55.724Z,52.24
2019-05-05T08:57:26.596Z,53.00
2019-05-05T08:59:57.475Z,50.99
2019-05-05T09:02:28.383Z,52.50
2019-05-05T09:04:59.287Z,53.26
2019-05-05T09:07:30.183Z,54.48
2019-05-05T09:10:01.080Z,51.60
2019-05-05T09:12:33.792Z,49.21
2019-05-05T09:15:06.716Z,46.74
2019-05-05T09:17:37.612Z,46.16
2019-05-05T09:20:08.497Z,43.87
2019-05-05T09:22:39.385Z,47.78
2019-05-05T09:25:27.059Z,49.06
2019-05-05T09:28:03.940Z,46.93
2019-05-05T09:30:39.838Z,49.19
2019-05-05T09:52:20.350Z,38.13
2019-05-05T09:54:51.241Z,39.31
2019-05-05T09:57:23.702Z,38.44
2019-05-05T09:59:56.460Z,37.96
2019-05-05T10:02:27.382Z,36.50
2019-05-05T10:04:58.332Z,36.78
2019-05-05T10:07:29.215Z,37.38
2019-05-05T10:10:00.504Z,38.18
2019-05-05T10:12:31.381Z,38.01
2019-05-05T10:15:07.191Z,37.40
2019-05-05T10:17:34.879Z,36.84
2019-05-05T10:20:09.534Z,35.82
2019-05-05T10:22:40.413Z,35.04
2019-05-05T10:25:28.771Z,34.66
2019-05-05T10:27:59.666Z,35.99
2019-05-05T10:30:30.716Z,36.45
2019-05-05T10:33:03.582Z,35.90
2019-05-05T10:35:34.612Z,36.57
2019-05-05T10:38:05.585Z,36.49
2019-05-05T10:40:36.496Z,36.19
2019-05-05T10:43:07.392Z,35.98
2019-05-05T10:45:38.298Z,35.79
2019-05-05T10:48:09.197Z,36.00
2019-05-05T10:50:40.085Z,35.79
2019-05-05T10:53:11.008Z,36.23
2019-05-05T10:55:41.893Z,36.40
2019-05-05T10:58:13.782Z,37.01
2019-05-05T11:00:51.200Z,37.07
2019-05-05T11:03:23.698Z,36.45
2019-05-05T11:05:54.765Z,35.48
2019-05-05T11:08:25.738Z,33.54
2019-05-05T11:10:56.625Z,33.13
2019-05-05T11:13:27.703Z,33.75
2019-05-05T11:15:59.448Z,34.34
2019-05-05T11:18:30.367Z,34.45
2019-05-05T11:21:03.871Z,34.99
2019-05-05T11:23:34.772Z,34.50
2019-05-05T11:26:05.714Z,33.10
2019-05-05T11:28:36.616Z,33.82
2019-05-05T11:31:07.530Z,33.94
2019-05-05T11:33:45.807Z,34.32
2019-05-05T11:36:21.299Z,34.44
2019-05-05T11:38:53.675Z,34.15
2019-05-05T11:41:24.819Z,34.56
2019-05-05T11:43:55.715Z,33.34
2019-05-05T11:46:26.621Z,32.87
2019-05-05T11:48:57.505Z,32.35
2019-05-05T11:51:28.585Z,30.39
2019-05-05T11:53:59.545Z,30.35
2019-05-05T11:56:30.461Z,30.20
2019-05-05T11:59:01.358Z,30.59
2019-05-05T12:01:32.224Z,30.70
2019-05-05T12:04:04.789Z,30.38
2019-05-05T12:06:35.670Z,31.48
2019-05-05T12:09:10.725Z,31.46
2019-05-05T12:11:43.744Z,31.27
2019-05-05T12:14:15.850Z,31.37
2019-05-05T12:16:46.753Z,31.93
2019-05-05T12:19:17.642Z,31.94
2019-05-05T12:21:48.548Z,31.38
2019-05-05T12:24:21.093Z,29.60
2019-05-05T12:26:56.827Z,28.77
2019-05-05T12:29:27.711Z,28.29
2019-05-05T12:31:59.896Z,29.02
2019-05-05T12:34:30.811Z,29.46
2019-05-05T12:37:01.725Z,29.95
2019-05-05T12:39:33.595Z,30.44
2019-05-05T12:42:04.924Z,30.45
2019-05-05T12:44:37.614Z,30.83
2019-05-05T12:47:14.446Z,31.33
2019-05-05T12:49:45.517Z,30.62
2019-05-05T12:52:16.433Z,29.64
2019-05-05T12:54:47.314Z,29.77
2019-05-05T12:57:18.230Z,30.07
2019-05-05T12:59:49.111Z,29.36
2019-05-05T13:02:20.025Z,28.99
2019-05-05T13:04:50.909Z,29.93
2019-05-05T13:07:21.818Z,29.07
2019-05-05T13:09:54.517Z,28.56
2019-05-05T13:12:25.461Z,28.82
2019-05-05T13:14:56.354Z,28.82
2019-05-05T13:17:27.263Z,28.71
2019-05-05T13:19:59.779Z,28.63
2019-05-05T13:22:50.424Z,28.37
2019-05-05T13:25:52.421Z,27.60
2019-05-05T13:28:11.986Z,26.60
2019-05-05T13:30:43.542Z,26.68
2019-05-05T13:33:14.507Z,27.68
2019-05-05T13:35:45.416Z,27.50
2019-05-05T13:38:16.325Z,27.61
2019-05-05T13:40:47.230Z,27.11
2019-05-05T13:43:18.144Z,27.54
2019-05-05T13:45:54.096Z,25.47
2019-05-05T13:48:24.991Z,25.67
2019-05-05T13:50:57.542Z,24.82
2019-05-05T13:53:28.418Z,24.77
2019-05-05T13:56:11.308Z,25.39
2019-05-05T13:58:34.185Z,25.26
2019-05-05T14:01:04.678Z,25.25
2019-05-05T14:03:35.558Z,25.46
2019-05-05T14:06:06.472Z,26.01
2019-05-05T14:08:37.359Z,26.00
2019-05-05T14:11:08.265Z,27.15
2019-05-05T14:13:39.349Z,28.58
2019-05-05T14:16:10.319Z,29.72
2019-05-05T14:18:41.229Z,28.68
2019-05-05T14:21:13.914Z,30.78
2019-05-05T14:23:55.356Z,31.14
2019-05-05T14:26:28.355Z,31.07
2019-05-05T14:28:59.822Z,30.99
2019-05-05T14:31:33.809Z,30.55
2019-05-05T14:34:06.468Z,31.59
2019-05-05T14:36:44.020Z,31.80
2019-05-05T14:39:16.136Z,31.94
2019-05-05T14:41:47.082Z,31.60
2019-05-05T14:44:17.960Z,30.68
2019-05-05T14:46:48.865Z,30.07
2019-05-05T14:49:20.103Z,29.26
2019-05-05T14:51:50.982Z,28.82
2019-05-05T14:54:21.912Z,28.19
2019-05-05T14:56:54.424Z,28.64
2019-05-05T14:59:25.469Z,28.39
2019-05-05T15:01:56.379Z,28.15
2019-05-05T15:04:28.924Z,28.10
2019-05-05T15:07:07.326Z,27.76
2019-05-05T15:09:49.107Z,27.88
2019-05-05T15:12:31.072Z,28.08
2019-05-05T15:15:03.923Z,28.10
2019-05-05T15:17:34.567Z,28.59
2019-05-05T15:20:07.609Z,28.71
2019-05-05T15:22:38.532Z,28.67
2019-05-05T15:25:09.414Z,29.79
2019-05-05T15:27:40.299Z,30.11
2019-05-05T15:30:11.222Z,31.21
2019-05-05T15:32:43.808Z,30.83
2019-05-05T15:35:14.792Z,31.22
2019-05-05T15:37:45.701Z,32.17
2019-05-05T15:40:16.623Z,32.55
2019-05-05T15:42:47.508Z,33.23
2019-05-05T15:45:18.432Z,33.41
2019-05-05T15:47:49.320Z,34.22
2019-05-05T15:50:20.243Z,34.11
2019-05-05T15:52:51.131Z,34.07
2019-05-05T15:55:22.025Z,34.81
2019-05-05T15:57:52.933Z,34.94
2019-05-05T16:00:25.619Z,35.45
2019-05-05T16:02:56.689Z,35.53
2019-05-05T16:05:27.596Z,36.31
2019-05-05T16:07:58.498Z,36.04
2019-05-05T16:10:29.383Z,36.05
2019-05-05T16:13:00.302Z,35.83
2019-05-05T16:15:31.022Z,36.10
2019-05-05T16:18:13.747Z,35.59
2019-05-05T16:21:03.627Z,35.11
2019-05-05T16:23:43.629Z,35.07
2019-05-05T16:26:14.643Z,34.71
2019-05-05T16:28:45.551Z,34.40
2019-05-05T16:31:16.431Z,34.08
2019-05-05T16:33:48.726Z,34.21
2019-05-05T16:36:19.706Z,34.58
2019-05-05T16:38:50.594Z,35.10
2019-05-05T16:41:21.547Z,35.37
2019-05-05T16:43:53.451Z,35.67
2019-05-05T16:46:24.527Z,36.06
2019-05-05T16:48:55.423Z,36.33
2019-05-05T16:51:28.020Z,36.35
2019-05-05T16:54:01.911Z,36.28
2019-05-05T16:56:33.637Z,36.31
2019-05-05T16:59:04.583Z,36.76
2019-05-05T17:01:35.718Z,36.95
2019-05-05T17:04:11.134Z,36.81
2019-05-05T17:06:39.252Z,37.08
2019-05-05T17:09:10.141Z,36.50
2019-05-05T17:11:43.939Z,36.24
2019-05-05T17:14:16.615Z,36.51
2019-05-05T17:17:01.410Z,37.13
2019-05-05T17:19:33.972Z,36.43
2019-05-05T17:22:12.562Z,36.20
2019-05-05T17:24:44.046Z,36.49
2019-05-05T17:27:15.066Z,36.09
2019-05-05T17:29:45.986Z,36.29
2019-05-05T17:32:16.890Z,36.21
2019-05-05T17:34:47.794Z,35.96
2019-05-05T17:37:19.150Z,36.42
2019-05-05T17:39:51.696Z,36.30
2019-05-05T17:42:34.747Z,36.29
2019-05-05T17:45:11.857Z,36.33
2019-05-05T17:47:44.477Z,36.64
2019-05-05T17:50:19.690Z,36.84
2019-05-05T17:52:58.277Z,36.25
2019-05-05T17:55:30.755Z,36.37
2019-05-05T17:58:02.772Z,36.28
2019-05-05T18:00:35.525Z,36.24
2019-05-05T18:03:08.154Z,36.25
2019-05-05T18:05:56.782Z,36.41
2019-05-05T18:08:44.671Z,36.46
2019-05-05T18:11:20.195Z,36.90
2019-05-05T18:13:55.685Z,36.68
2019-05-05T18:16:27.863Z,37.06
2019-05-05T18:18:59.817Z,37.09
2019-05-05T18:21:32.303Z,37.31
2019-05-05T18:24:03.477Z,37.52
2019-05-05T18:26:34.356Z,37.96
2019-05-05T18:29:05.256Z,37.79
2019-05-05T18:31:37.034Z,38.12
2019-05-05T18:34:07.952Z,38.18
2019-05-05T18:36:39.307Z,38.12
2019-05-05T18:39:10.198Z,38.25
2019-05-05T18:41:44.036Z,38.51
2019-05-05T18:44:16.627Z,38.77
2019-05-05T18:46:49.166Z,39.00
2019-05-05T18:49:20.048Z,39.26
2019-05-05T18:51:50.991Z,39.30
2019-05-05T18:54:21.861Z,39.08
2019-05-05T18:56:54.616Z,39.56
2019-05-05T18:59:25.516Z,39.73
2019-05-05T19:02:01.023Z,39.88
2019-05-05T19:04:42.434Z,40.32
2019-05-05T19:07:14.959Z,40.55
2019-05-05T19:09:53.990Z,40.80
2019-05-05T19:12:18.462Z,41.01
2019-05-05T19:14:49.348Z,41.36
2019-05-05T19:17:20.248Z,41.73
2019-05-05T19:19:54.854Z,42.14
2019-05-05T19:22:25.377Z,41.86
2019-05-05T19:24:57.904Z,41.95
2019-05-05T19:27:28.803Z,42.03
2019-05-05T19:30:00.763Z,42.93
2019-05-05T19:32:31.753Z,42.75
2019-05-05T19:35:03.946Z,43.25
2019-05-05T19:37:35.003Z,43.50
2019-05-05T19:40:06.550Z,43.60
2019-05-05T19:42:37.454Z,43.82
2019-05-05T19:45:08.424Z,44.08
2019-05-05T19:47:39.322Z,44.25
2019-05-05T19:50:19.455Z,44.30
2019-05-05T19:52:50.355Z,44.44
2019-05-05T19:55:21.232Z,44.57
2019-05-05T19:57:53.923Z,44.66
2019-05-05T20:00:26.285Z,44.67
2019-05-05T20:03:04.395Z,44.75
2019-05-05T20:05:29.885Z,44.89
2019-05-05T20:08:00.761Z,45.15
2019-05-05T20:10:31.666Z,45.46
2019-05-05T20:13:04.839Z,45.60
2019-05-05T20:15:36.783Z,45.23
2019-05-05T20:18:07.680Z,45.14
2019-05-05T20:20:38.572Z,45.73
2019-05-05T20:23:09.460Z,45.93
2019-05-05T20:25:40.352Z,46.25
2019-05-05T20:28:11.231Z,46.09
2019-05-05T20:30:42.092Z,46.15
2019-05-05T20:33:14.619Z,46.85
2019-05-05T20:35:49.776Z,47.04
2019-05-05T20:38:25.009Z,47.24
2019-05-05T20:41:09.523Z,47.33
2019-05-05T20:43:40.503Z,47.54
2019-05-05T20:46:11.932Z,47.93
2019-05-05T20:48:44.892Z,48.12
2019-05-05T20:51:17.036Z,48.55
2019-05-05T20:53:49.249Z,48.94
2019-05-05T20:56:20.291Z,49.35
2019-05-05T20:58:51.165Z,49.74
2019-05-05T21:01:22.033Z,50.36
2019-05-05T21:03:53.592Z,50.38
2019-05-05T21:06:24.719Z,50.46
2019-05-05T21:08:56.661Z,50.96
2019-05-05T21:11:27.956Z,51.27
2019-05-05T21:13:59.598Z,51.22
2019-05-05T21:16:30.558Z,51.12
2019-05-05T21:19:01.436Z,51.40
2019-05-05T21:21:34.441Z,51.37
2019-05-05T21:24:05.674Z,51.84
2019-05-05T21:26:56.301Z,51.53
2019-05-05T21:29:38.402Z,51.87
2019-05-05T21:31:59.849Z,52.42
2019-05-05T21:34:30.756Z,52.66
2019-05-05T21:37:01.653Z,53.22
2019-05-05T21:39:34.753Z,53.52
2019-05-05T21:42:05.147Z,53.83
2019-05-05T21:44:35.985Z,53.90
2019-05-05T21:47:06.880Z,54.33
2019-05-05T21:49:37.751Z,54.53
2019-05-05T21:52:10.278Z,54.53
2019-05-05T21:54:44.033Z,54.87
2019-05-05T21:57:25.284Z,55.20
2019-05-05T21:59:58.853Z,55.86
2019-05-05T22:02:29.899Z,55.69
2019-05-05T22:05:00.795Z,55.87
2019-05-05T22:07:33.576Z,55.81
2019-05-05T22:10:05.512Z,56.11
2019-05-05T22:12:36.505Z,56.72
2019-05-05T22:15:07.534Z,56.69
2019-05-05T22:17:38.407Z,57.26
2019-05-05T22:20:19.975Z,57.37
2019-05-05T22:22:51.021Z,57.54
2019-05-05T22:25:21.925Z,57.96
2019-05-05T22:27:54.534Z,58.09
2019-05-05T22:30:25.483Z,58.22
2019-05-05T22:32:56.352Z,58.63
2019-05-05T22:35:27.258Z,58.90
2019-05-05T22:37:58.166Z,58.86
2019-05-05T22:40:29.806Z,59.04
2019-05-05T22:43:00.702Z,59.29
2019-05-05T22:45:31.577Z,59.35
2019-05-05T22:48:04.550Z,59.61
2019-05-05T22:50:35.794Z,59.66
2019-05-05T22:53:06.679Z,59.88
2019-05-05T22:55:37.557Z,60.11
2019-05-05T22:58:08.449Z,60.53
2019-05-05T23:00:39.761Z,60.56
2019-05-05T23:03:21.355Z,60.94
2019-05-05T23:05:59.818Z,60.98
2019-05-05T23:08:30.702Z,60.84
2019-05-05T23:11:03.869Z,61.08
2019-05-05T23:13:34.170Z,60.77
2019-05-05T23:16:09.640Z,60.78
2019-05-05T23:18:40.515Z,60.90
2019-05-05T23:21:15.631Z,60.75
2019-05-05T23:23:48.090Z,60.63
2019-05-05T23:26:23.888Z,60.62
2019-05-05T23:28:54.795Z,60.48
2019-05-05T23:31:25.669Z,60.35
2019-05-05T23:33:56.563Z,60.44
2019-05-05T23:36:27.436Z,60.43
2019-05-05T23:38:58.336Z,60.48
2019-05-05T23:41:29.227Z,60.73
2019-05-05T23:44:00.128Z,60.70
2019-05-05T23:46:31.002Z,60.53
2019-05-05T23:49:04.121Z,60.55
2019-05-05T23:51:34.839Z,60.83
2019-05-05T23:54:05.846Z,60.84
2019-05-05T23:56:36.757Z,60.69
2019-05-05T23:59:07.624Z,60.85
